Time;durP1;ratioP1;P1;durP2;ratioP2;P2;SDS_P1;SDS_P2;PMS_P1;PMS_P2;Temp;Humidity;BMP_temperature;BMP_pressure;BME280_temperature;BME280_humidity;BME280_pressure;Samples;Min_cycle;Max_cycle;Signal;HPM_P1;HPM_P2
2024/04/01 00:00:25;;;;;;;20.00;6.30;;;;;;;12.61;66.43;96118.19;5030622;28;20036;-75
2024/04/01 00:02:51;;;;;;;24.55;6.32;;;;;;;12.57;66.12;96106.41;5021205;28;20116;-75
2024/04/01 00:05:16;;;;;;;27.85;6.50;;;;;;;12.64;66.41;96109.47;5047976;28;20134;-75
2024/04/01 00:07:45;;;;;;;26.08;6.75;;;;;;;12.67;65.76;96108.06;5046647;28;20075;-77
2024/04/01 00:10:10;;;;;;;29.83;6.82;;;;;;;12.68;66.49;96106.94;5023747;28;20113;-76
2024/04/01 00:12:36;;;;;;;29.45;6.53;;;;;;;12.74;65.84;96127.31;5050798;28;20107;-76
2024/04/01 00:15:01;;;;;;;27.92;5.90;;;;;;;12.73;66.22;96125.72;5024336;28;20489;-76
2024/04/01 00:17:27;;;;;;;29.20;6.63;;;;;;;12.68;66.86;96117.75;5015182;28;20076;-76
2024/04/01 00:19:52;;;;;;;25.88;6.65;;;;;;;12.68;66.71;96120.44;5039317;28;20415;-75
2024/04/01 00:22:18;;;;;;;27.55;6.13;;;;;;;12.64;66.86;96100.56;5034066;28;20036;-76
2024/04/01 00:24:43;;;;;;;21.35;5.60;;;;;;;12.71;66.28;96098.22;5047192;28;20063;-76
2024/04/01 00:27:10;;;;;;;38.15;6.93;;;;;;;12.76;66.30;96103.50;5032170;28;20034;-76
2024/04/01 00:29:36;;;;;;;24.02;6.53;;;;;;;12.79;65.53;96089.38;5054131;28;20017;-76
2024/04/01 00:32:01;;;;;;;23.95;5.88;;;;;;;12.85;66.42;96085.44;5003626;28;20484;-76
2024/04/01 00:34:26;;;;;;;21.75;6.15;;;;;;;12.76;66.94;96068.38;5020014;28;20471;-76
2024/04/01 00:36:52;;;;;;;24.73;5.50;;;;;;;12.84;67.06;96063.03;5031947;28;20044;-75
2024/04/01 00:39:17;;;;;;;28.27;6.03;;;;;;;12.91;67.00;96062.56;5036021;28;20043;-76
2024/04/01 00:41:43;;;;;;;25.20;6.22;;;;;;;12.83;67.87;96039.84;5012929;28;20068;-76
2024/04/01 00:44:08;;;;;;;27.15;6.47;;;;;;;12.87;68.48;96034.59;5030666;28;20021;-76
2024/04/01 00:46:34;;;;;;;27.38;5.93;;;;;;;12.83;68.65;96028.22;5019592;28;20033;-76
2024/04/01 00:48:59;;;;;;;23.70;6.47;;;;;;;12.88;68.90;96038.91;5023211;28;20384;-77
2024/04/01 00:51:25;;;;;;;31.92;6.97;;;;;;;12.84;68.84;96030.59;5033610;28;20036;-76
2024/04/01 00:53:51;;;;;;;29.33;6.80;;;;;;;12.90;68.67;96040.19;5030555;28;20136;-76
2024/04/01 00:56:17;;;;;;;26.27;6.70;;;;;;;12.84;68.44;96019.78;5041599;22;20021;-75
2024/04/01 00:58:42;;;;;;;21.58;6.45;;;;;;;12.89;67.95;96021.56;5014701;28;20037;-75
2024/04/01 01:01:08;;;;;;;29.55;6.70;;;;;;;12.90;67.16;96020.47;5000417;28;20400;-75
2024/04/01 01:03:34;;;;;;;29.85;7.55;;;;;;;12.77;66.64;96002.44;5035998;28;20021;-75
2024/04/01 01:06:00;;;;;;;31.92;6.70;;;;;;;12.93;66.51;96030.63;5016747;28;20519;-75
2024/04/01 01:08:25;;;;;;;25.98;6.80;;;;;;;13.02;66.55;96036.88;4978549;28;20041;-75
2024/04/01 01:10:50;;;;;;;20.92;6.40;;;;;;;13.02;66.92;96020.69;4997279;28;20099;-73
2024/04/01 01:13:16;;;;;;;35.08;6.78;;;;;;;13.01;66.92;96019.06;4991594;28;20021;-73
2024/04/01 01:15:42;;;;;;;30.33;7.05;;;;;;;12.97;67.13;96008.09;5031890;28;20037;-73
2024/04/01 01:18:07;;;;;;;29.80;7.68;;;;;;;12.99;66.82;96010.47;5013761;28;20476;-73
2024/04/01 01:20:33;;;;;;;27.13;6.55;;;;;;;13.00;67.23;96020.97;5008514;28;20038;-73
2024/04/01 01:22:58;;;;;;;30.25;7.47;;;;;;;12.94;67.44;96008.72;5014139;28;20025;-73
2024/04/01 01:25:23;;;;;;;24.98;6.03;;;;;;;13.01;68.01;96019.88;4997500;28;20408;-73
2024/04/01 01:27:49;;;;;;;29.83;6.50;;;;;;;12.96;67.79;96005.69;5011975;28;20025;-73
2024/04/01 01:30:15;;;;;;;28.00;6.55;;;;;;;12.95;68.12;96012.22;4997563;28;20029;-72
2024/04/01 01:32:54;;;;;;;30.67;6.50;;;;;;;13.00;67.32;96012.06;4994789;28;20104;-72
2024/04/01 01:35:22;;;;;;;25.70;6.38;;;;;;;12.99;67.36;96015.88;5031528;28;20041;-73
2024/04/01 01:37:49;;;;;;;29.67;7.18;;;;;;;12.94;68.09;96002.53;4997096;28;20052;-72
2024/04/01 01:40:14;;;;;;;34.88;6.90;;;;;;;12.95;67.18;96014.94;4999394;28;20036;-73
2024/04/01 01:42:39;;;;;;;28.35;7.25;;;;;;;12.82;66.78;95988.81;4981481;28;20025;-72
2024/04/01 01:45:05;;;;;;;33.38;6.50;;;;;;;12.79;66.57;95989.44;5018332;28;20041;-73
2024/04/01 01:47:35;;;;;;;32.20;7.40;;;;;;;12.93;66.02;95995.50;5005895;28;20109;-73
2024/04/01 01:50:01;;;;;;;35.05;7.25;;;;;;;12.93;65.62;96000.91;5004471;28;20045;-73
2024/04/01 01:52:26;;;;;;;33.97;6.93;;;;;;;12.84;66.09;95967.66;5033059;28;20026;-72
2024/04/01 01:54:52;;;;;;;26.83;7.13;;;;;;;12.84;66.52;95964.97;4985326;28;20504;-73
2024/04/01 01:57:18;;;;;;;32.28;7.40;;;;;;;13.00;66.65;95982.34;5000633;28;20029;-72
2024/04/01 01:59:43;;;;;;;25.95;6.68;;;;;;;12.94;66.50;95975.50;5013563;28;20044;-73
2024/04/01 02:02:09;;;;;;;26.80;6.38;;;;;;;12.90;67.22;95958.34;5002261;28;20033;-74
2024/04/01 02:04:35;;;;;;;24.33;6.15;;;;;;;12.92;66.73;95939.91;5001094;28;20033;-74
2024/04/01 02:07:02;;;;;;;32.03;6.53;;;;;;;12.78;68.20;95917.63;5011474;28;20043;-73
2024/04/01 02:09:28;;;;;;;30.65;7.05;;;;;;;12.79;67.94;95925.41;5017209;28;20583;-76
2024/04/01 02:11:53;;;;;;;28.33;6.55;;;;;;;12.78;68.08;95918.41;5032790;28;20109;-74
2024/04/01 02:14:19;;;;;;;26.10;6.45;;;;;;;12.74;68.43;95900.47;5030669;28;20087;-75
2024/04/01 02:16:44;;;;;;;29.33;6.93;;;;;;;12.79;69.19;95900.31;5017375;28;20068;-75
2024/04/01 02:19:10;;;;;;;27.20;6.97;;;;;;;12.65;68.67;95880.75;5000793;28;20068;-76
2024/04/01 02:21:35;;;;;;;23.95;6.70;;;;;;;12.70;68.60;95873.25;5017399;28;20025;-76
2024/04/01 02:24:01;;;;;;;28.58;7.07;;;;;;;12.56;68.87;95866.38;5001082;28;20091;-74
2024/04/01 02:26:26;;;;;;;32.08;7.60;;;;;;;12.57;68.45;95868.00;5017304;28;20041;-74
2024/04/01 02:28:52;;;;;;;30.13;7.65;;;;;;;12.53;68.52;95850.84;5020623;28;20044;-74
2024/04/01 02:31:17;;;;;;;29.73;6.78;;;;;;;12.51;69.02;95861.16;5023121;28;20041;-74
2024/04/01 02:33:43;;;;;;;25.48;6.82;;;;;;;12.51;69.47;95850.38;5011901;28;20553;-75
2024/04/01 02:36:09;;;;;;;24.10;7.00;;;;;;;12.45;69.63;95831.59;5012622;28;20034;-74
2024/04/01 02:38:34;;;;;;;23.83;6.38;;;;;;;12.45;69.27;95823.50;4995802;28;20619;-74
2024/04/01 02:40:59;;;;;;;30.42;7.95;;;;;;;12.43;68.31;95833.03;5016848;28;20041;-74
2024/04/01 02:43:25;;;;;;;26.70;6.90;;;;;;;12.43;68.19;95814.94;4984312;28;20570;-73
2024/04/01 02:45:50;;;;;;;26.08;6.47;;;;;;;12.39;69.25;95813.94;4992819;28;20032;-75
2024/04/01 02:48:15;;;;;;;25.50;6.22;;;;;;;12.42;68.40;95818.72;5016567;28;20033;-75
2024/04/01 02:50:42;;;;;;;31.08;6.43;;;;;;;12.46;68.73;95808.88;5000638;28;20032;-73
2024/04/01 02:53:07;;;;;;;21.38;4.90;;;;;;;12.56;68.17;95823.19;5000277;28;20511;-75
2024/04/01 02:55:33;;;;;;;25.95;5.70;;;;;;;12.57;67.77;95819.41;5016764;28;20030;-73
2024/04/01 02:57:58;;;;;;;20.27;6.20;;;;;;;12.54;67.97;95831.63;5030568;28;20455;-73
2024/04/01 03:00:25;;;;;;;21.92;6.63;;;;;;;12.72;67.57;95848.66;5000210;28;20025;-73
2024/04/01 03:02:50;;;;;;;20.13;4.80;;;;;;;12.64;68.00;95825.13;4998680;28;20033;-73
2024/04/01 03:05:17;;;;;;;21.13;5.53;;;;;;;12.78;67.57;95847.41;5028072;28;20068;-72
2024/04/01 03:07:44;;;;;;;21.02;5.32;;;;;;;12.74;67.10;95862.66;5015935;28;20095;-72
2024/04/01 03:10:13;;;;;;;22.60;5.38;;;;;;;12.83;67.03;95860.75;4995719;28;20034;-72
2024/04/01 03:12:40;;;;;;;18.45;5.28;;;;;;;12.92;66.48;95821.03;4997207;28;20041;-72
2024/04/01 03:15:06;;;;;;;20.45;4.70;;;;;;;12.79;66.60;95789.56;5016235;28;20035;-72
2024/04/01 03:17:32;;;;;;;23.58;5.80;;;;;;;12.84;66.29;95775.88;4999458;28;20392;-72
2024/04/01 03:19:58;;;;;;;19.42;5.60;;;;;;;12.85;66.24;95755.88;4999935;28;20112;-74
2024/04/01 03:22:25;;;;;;;24.58;6.03;;;;;;;12.74;66.19;95757.31;5020406;28;20064;-73
2024/04/01 03:24:51;;;;;;;20.67;6.03;;;;;;;12.75;66.73;95783.19;5033846;28;20116;-74
2024/04/01 03:27:16;;;;;;;15.05;4.82;;;;;;;12.55;67.57;95802.72;4999658;28;20460;-74
2024/04/01 03:29:41;;;;;;;19.60;5.47;;;;;;;12.55;67.12;95860.22;5025088;28;20475;-73
2024/04/01 03:32:07;;;;;;;21.45;5.25;;;;;;;12.48;67.34;95860.66;5031829;28;20045;-73
2024/04/01 03:34:32;;;;;;;15.90;4.68;;;;;;;12.56;67.00;95861.00;4988764;28;20029;-73
2024/04/01 03:36:59;;;;;;;18.45;4.30;;;;;;;12.53;65.85;95867.03;4999221;28;20034;-74
2024/04/01 03:39:25;;;;;;;17.05;4.40;;;;;;;12.67;64.95;95854.97;5015873;28;20055;-73
2024/04/01 03:41:50;;;;;;;14.40;4.10;;;;;;;12.67;64.16;95848.81;5018045;28;20507;-72
2024/04/01 03:44:15;;;;;;;15.77;4.10;;;;;;;12.80;64.05;95858.66;4996377;28;20404;-73
2024/04/01 03:46:41;;;;;;;14.30;4.20;;;;;;;12.75;63.59;95843.41;5015703;28;20038;-74
2024/04/01 03:49:07;;;;;;;18.52;4.57;;;;;;;12.82;63.58;95856.44;4999118;28;20449;-73
2024/04/01 03:51:32;;;;;;;20.17;4.40;;;;;;;12.76;63.57;95845.03;5004231;28;20029;-74
2024/04/01 03:53:58;;;;;;;18.05;4.90;;;;;;;12.73;63.54;95836.72;4994222;28;20390;-72
2024/04/01 03:56:23;;;;;;;16.27;5.00;;;;;;;12.60;64.52;95846.56;5015357;28;20056;-73
2024/04/01 03:58:48;;;;;;;16.73;4.25;;;;;;;12.62;64.25;95843.56;4998693;28;20029;-72
2024/04/01 04:01:16;;;;;;;15.75;4.72;;;;;;;12.47;64.96;95821.28;5004075;28;20042;-74
2024/04/01 04:03:42;;;;;;;16.40;4.68;;;;;;;12.39;65.15;95792.34;5007512;28;20060;-72
2024/04/01 04:06:11;;;;;;;22.00;4.53;;;;;;;12.41;65.28;95773.97;4998949;28;20041;-73
2024/04/01 04:08:37;;;;;;;20.83;4.93;;;;;;;12.34;65.42;95754.75;5015623;28;20049;-73
2024/04/01 04:11:07;;;;;;;18.00;4.50;;;;;;;12.34;65.01;95757.44;4994260;28;20128;-74
2024/04/01 04:13:34;;;;;;;22.30;4.15;;;;;;;12.41;65.29;95746.97;5015800;28;20045;-73
2024/04/01 04:15:59;;;;;;;15.15;3.70;;;;;;;12.51;64.48;95775.53;5015699;28;20025;-72
2024/04/01 04:18:25;;;;;;;11.07;3.75;;;;;;;12.53;63.34;95769.84;5027352;28;20488;-74
2024/04/01 04:20:50;;;;;;;16.83;3.85;;;;;;;12.55;64.28;95794.63;4996823;28;20036;-73
2024/04/01 04:23:15;;;;;;;13.35;3.67;;;;;;;12.60;64.56;95813.38;5008880;28;20038;-73
2024/04/01 04:25:41;;;;;;;13.05;4.05;;;;;;;12.61;64.76;95809.53;5014894;28;20025;-73
2024/04/01 04:28:06;;;;;;;15.95;4.10;;;;;;;12.57;64.69;95800.50;5022406;28;20064;-75
2024/04/01 04:30:32;;;;;;;11.75;2.70;;;;;;;12.57;62.49;95792.41;5014912;28;20026;-75
2024/04/01 04:32:57;;;;;;;8.63;2.42;;;;;;;12.84;58.98;95801.00;5014753;28;20045;-74
2024/04/01 04:35:25;;;;;;;7.70;2.22;;;;;;;13.10;57.45;95809.94;5014881;28;20033;-75
2024/04/01 04:37:50;;;;;;;8.35;2.42;;;;;;;13.41;55.75;95815.16;5015358;28;20095;-75
2024/04/01 04:40:16;;;;;;;8.38;2.35;;;;;;;13.51;54.71;95806.69;5000197;28;20029;-76
2024/04/01 04:42:41;;;;;;;8.57;2.20;;;;;;;13.65;54.08;95804.59;5001159;28;20032;-74
2024/04/01 04:45:06;;;;;;;11.35;3.08;;;;;;;13.83;53.99;95802.66;4990349;28;20017;-75
2024/04/01 04:47:32;;;;;;;10.55;2.50;;;;;;;13.90;53.91;95797.53;5014195;28;20104;-74
2024/04/01 04:49:57;;;;;;;11.88;2.50;;;;;;;13.98;53.31;95785.09;5022609;28;20552;-74
2024/04/01 04:52:23;;;;;;;7.57;2.30;;;;;;;14.13;52.94;95804.28;4995841;28;20448;-75
2024/04/01 04:54:48;;;;;;;8.15;2.55;;;;;;;14.12;52.91;95793.81;5014457;28;20038;-73
2024/04/01 04:57:13;;;;;;;8.93;2.28;;;;;;;14.24;52.59;95788.47;5020445;28;20400;-74
2024/04/01 04:59:39;;;;;;;6.72;2.20;;;;;;;14.20;52.18;95787.53;5017258;28;20037;-75
2024/04/01 05:02:08;;;;;;;5.93;2.00;;;;;;;14.30;52.00;95789.91;5022747;28;20485;-75
2024/04/01 05:04:34;;;;;;;8.63;2.17;;;;;;;14.35;52.17;95781.63;5013652;28;20100;-74
2024/04/01 05:07:00;;;;;;;9.73;2.20;;;;;;;14.30;52.01;95784.50;4997656;28;20241;-74
2024/04/01 05:09:26;;;;;;;6.18;2.10;;;;;;;14.37;51.85;95776.66;5015884;28;20025;-74
2024/04/01 05:11:53;;;;;;;8.52;2.35;;;;;;;14.39;51.33;95766.28;4997948;28;20048;-75
2024/04/01 05:14:21;;;;;;;8.73;2.08;;;;;;;14.45;51.05;95767.69;5018183;28;20519;-74
2024/04/01 05:16:47;;;;;;;5.72;1.77;;;;;;;14.45;51.47;95775.81;5006134;28;20056;-74
2024/04/01 05:19:13;;;;;;;4.07;1.92;;;;;;;14.42;50.87;95760.22;4992004;28;21403;-74
2024/04/01 05:21:38;;;;;;;5.72;2.17;;;;;;;14.56;50.73;95766.19;5010090;28;20041;-75
2024/04/01 05:24:04;;;;;;;7.45;2.22;;;;;;;14.52;50.15;95732.75;4981314;28;20511;-73
2024/04/01 05:26:29;;;;;;;8.02;2.28;;;;;;;14.65;49.60;95745.25;5013234;28;20065;-75
2024/04/01 05:28:55;;;;;;;7.22;2.15;;;;;;;14.61;49.52;95732.69;5013633;28;20039;-73
2024/04/01 05:31:20;;;;;;;6.88;1.90;;;;;;;14.63;50.28;95739.38;5010983;28;20381;-73
2024/04/01 05:33:46;;;;;;;6.40;2.47;;;;;;;14.67;50.19;95751.13;5018094;28;20029;-74
2024/04/01 05:36:11;;;;;;;7.05;2.13;;;;;;;14.71;50.30;95757.47;5016963;28;20120;-75
2024/04/01 05:38:37;;;;;;;7.70;2.25;;;;;;;14.73;50.57;95746.28;4997028;28;20056;-75
2024/04/01 05:41:02;;;;;;;5.55;1.88;;;;;;;14.66;50.50;95711.59;5023298;28;20034;-73
2024/04/01 05:43:27;;;;;;;8.75;2.17;;;;;;;14.66;50.18;95699.97;5031857;28;20029;-75
2024/04/01 05:45:53;;;;;;;4.35;1.60;;;;;;;14.71;50.12;95714.13;5019822;28;20116;-74
2024/04/01 05:48:18;;;;;;;13.18;2.00;;;;;;;14.70;49.74;95696.28;5016994;28;20025;-74
2024/04/01 05:50:53;;;;;;;7.78;2.10;;;;;;;14.72;49.97;95704.88;4989361;28;20429;-74
2024/04/01 05:53:18;;;;;;;4.72;2.03;;;;;;;14.81;50.39;95711.03;4994744;28;20045;-73
2024/04/01 05:55:45;;;;;;;6.22;1.80;;;;;;;14.72;50.80;95693.25;4997352;28;20025;-74
2024/04/01 05:58:10;;;;;;;7.15;1.90;;;;;;;14.69;50.83;95713.66;5016751;28;20480;-74
2024/04/01 06:00:37;;;;;;;12.18;5.30;;;;;;;14.70;50.80;95685.47;5005495;28;20083;-74
2024/04/01 06:03:02;;;;;;;35.63;21.73;;;;;;;14.78;50.47;95697.31;4985658;28;20025;-74
2024/04/01 06:05:28;;;;;;;7.78;2.88;;;;;;;14.73;50.38;95673.94;5011079;28;20090;-73
2024/04/01 06:07:55;;;;;;;24.10;16.15;;;;;;;14.72;50.92;95666.94;5015536;28;20048;-72
2024/04/01 06:10:20;;;;;;;9.57;4.35;;;;;;;14.75;50.28;95663.56;5013656;28;20021;-74
2024/04/01 06:12:46;;;;;;;7.82;3.55;;;;;;;14.80;50.60;95679.63;4996915;28;20044;-72
2024/04/01 06:15:11;;;;;;;9.55;2.58;;;;;;;14.71;50.23;95648.28;5003408;28;20112;-73
2024/04/01 06:17:36;;;;;;;6.88;2.80;;;;;;;14.77;50.63;95658.59;4996801;28;20037;-74
2024/04/01 06:20:03;;;;;;;8.23;2.47;;;;;;;14.77;50.54;95658.59;5005375;28;20032;-73
2024/04/01 06:22:29;;;;;;;4.93;1.77;;;;;;;14.92;50.53;95659.91;5012457;28;20089;-72
2024/04/01 06:24:55;;;;;;;9.90;2.00;;;;;;;14.88;49.86;95659.78;5013572;28;20479;-72
2024/04/01 06:27:20;;;;;;;8.75;1.90;;;;;;;14.99;49.39;95671.78;5012896;28;20029;-71
2024/04/01 06:29:46;;;;;;;6.13;1.83;;;;;;;14.94;48.65;95663.06;5005282;28;20021;-72
2024/04/01 06:32:11;;;;;;;5.95;1.80;;;;;;;15.11;48.18;95673.75;4993513;28;20400;-72
2024/04/01 06:34:37;;;;;;;5.63;1.40;;;;;;;15.24;47.32;95694.31;5013438;28;20115;-74
2024/04/01 06:37:02;;;;;;;6.65;1.90;;;;;;;15.30;46.80;95687.59;5008761;28;20037;-73
2024/04/01 06:39:28;;;;;;;10.40;1.67;;;;;;;15.35;47.13;95684.66;5009463;28;20030;-73
2024/04/01 06:41:55;;;;;;;9.38;1.80;;;;;;;15.35;47.17;95687.38;5000665;28;20041;-73
2024/04/01 06:44:20;;;;;;;5.95;1.80;;;;;;;15.40;47.29;95680.94;5024451;28;20017;-73
2024/04/01 06:46:45;;;;;;;7.32;1.80;;;;;;;15.35;47.53;95678.44;5012803;28;20037;-72
2024/04/01 06:49:11;;;;;;;6.72;2.00;;;;;;;15.43;47.71;95686.47;5012073;28;20484;-73
2024/04/01 06:51:37;;;;;;;10.43;2.15;;;;;;;15.42;47.93;95689.53;5016753;28;20029;-74
2024/04/01 06:54:03;;;;;;;6.57;1.75;;;;;;;15.40;47.98;95664.66;5016590;28;20075;-74
2024/04/01 06:56:28;;;;;;;7.35;1.85;;;;;;;15.47;47.70;95659.50;5000145;28;20060;-73
2024/04/01 06:58:53;;;;;;;7.10;1.95;;;;;;;15.54;47.67;95643.47;5020037;23;20045;-75
2024/04/01 07:01:19;;;;;;;7.60;1.77;;;;;;;15.48;47.08;95612.25;5017084;28;20083;-75
2024/04/01 07:03:44;;;;;;;8.00;2.10;;;;;;;15.66;47.90;95629.91;5034640;28;20105;-75
2024/04/01 07:06:10;;;;;;;6.30;2.08;;;;;;;15.71;47.45;95645.94;5016747;28;20034;-75
2024/04/01 07:08:35;;;;;;;6.70;2.13;;;;;;;15.71;47.42;95662.22;5018235;28;20029;-75
2024/04/01 07:11:02;;;;;;;7.35;1.95;;;;;;;15.59;47.44;95640.53;5029837;28;20044;-75
2024/04/01 07:13:27;;;;;;;6.50;1.70;;;;;;;15.68;47.71;95660.22;5006617;28;20022;-75
2024/04/01 07:15:53;;;;;;;6.65;1.80;;;;;;;15.62;48.36;95648.78;5000495;28;20451;-74
2024/04/01 07:18:19;;;;;;;7.25;2.13;;;;;;;15.73;48.31;95673.53;5009580;28;20030;-74
2024/04/01 07:20:44;;;;;;;10.23;3.22;;;;;;;15.67;50.05;95658.63;5014538;28;20132;-74
2024/04/01 07:23:10;;;;;;;9.48;4.03;;;;;;;15.63;51.54;95680.22;4984198;28;20159;-74
2024/04/01 07:25:35;;;;;;;7.22;2.30;;;;;;;15.61;52.60;95682.44;5008171;28;20050;-75
2024/04/01 07:28:01;;;;;;;10.90;1.95;;;;;;;15.52;53.18;95689.13;5009944;28;20029;-74
2024/04/01 07:30:26;;;;;;;12.70;4.10;;;;;;;15.55;53.24;95723.72;5024629;28;20041;-76
2024/04/01 07:32:51;;;;;;;16.02;4.68;;;;;;;14.73;57.84;95724.63;5011343;28;20094;-76
2024/04/01 07:35:17;;;;;;;15.70;5.55;;;;;;;14.50;60.51;95772.91;4990593;28;20496;-75
2024/04/01 07:37:42;;;;;;;19.15;5.88;;;;;;;14.14;63.02;95775.31;5011340;28;20543;-75
2024/04/01 07:40:08;;;;;;;23.50;5.90;;;;;;;13.95;64.55;95794.66;5016222;28;20072;-75
2024/04/01 07:42:33;;;;;;;23.58;5.60;;;;;;;13.79;64.89;95788.97;4997175;28;20083;-77
2024/04/01 07:45:00;;;;;;;13.15;5.22;;;;;;;13.48;66.13;95766.81;4981925;28;20508;-75
2024/04/01 07:47:25;;;;;;;21.65;5.63;;;;;;;13.82;65.43;95798.34;5000380;28;20087;-78
2024/04/01 07:49:51;;;;;;;18.33;5.25;;;;;;;13.76;64.86;95781.53;5002999;28;20041;-76
2024/04/01 07:52:16;;;;;;;19.05;5.63;;;;;;;13.99;65.55;95789.38;5032662;28;20025;-75
2024/04/01 07:54:41;;;;;;;13.85;5.47;;;;;;;14.05;65.50;95793.50;5016053;28;20497;-75
2024/04/01 07:57:07;;;;;;;13.77;4.93;;;;;;;14.20;65.16;95806.50;4999586;28;20031;-75
2024/04/01 07:59:34;;;;;;;20.05;5.43;;;;;;;14.28;65.12;95802.97;5015454;28;20040;-76
2024/04/01 08:02:06;;;;;;;17.92;7.72;;;;;;;14.41;64.10;95802.75;5015905;28;20393;-76
2024/04/01 08:04:31;;;;;;;17.20;6.38;;;;;;;14.49;63.83;95811.97;4983981;28;20477;-75
2024/04/01 08:06:56;;;;;;;18.25;5.85;;;;;;;14.51;63.66;95796.19;5015728;28;20036;-75
2024/04/01 08:09:22;;;;;;;18.75;5.15;;;;;;;14.52;63.04;95776.88;4982933;28;20040;-75
2024/04/01 08:11:50;;;;;;;13.00;4.82;;;;;;;14.75;62.16;95798.25;5026188;28;20034;-75
2024/04/01 08:14:18;;;;;;;15.10;4.82;;;;;;;14.87;61.02;95787.47;4982919;28;20048;-75
2024/04/01 08:16:43;;;;;;;14.80;4.30;;;;;;;14.98;60.60;95784.03;4994975;28;20030;-75
2024/04/01 08:19:09;;;;;;;17.35;4.15;;;;;;;15.09;59.44;95760.03;5003685;28;20124;-76
2024/04/01 08:21:35;;;;;;;13.23;4.55;;;;;;;15.20;58.68;95742.22;4993328;28;20036;-75
2024/04/01 08:24:00;;;;;;;12.15;4.07;;;;;;;15.37;58.38;95731.22;4997369;28;20564;-75
2024/04/01 08:26:26;;;;;;;13.55;4.35;;;;;;;15.59;57.90;95727.34;4980720;28;20125;-75
2024/04/01 08:28:51;;;;;;;12.38;3.97;;;;;;;15.73;57.25;95750.31;4982358;28;20026;-75
2024/04/01 08:31:17;;;;;;;16.90;3.83;;;;;;;15.97;56.54;95787.56;5024287;28;20449;-75
2024/04/01 08:33:42;;;;;;;10.55;3.38;;;;;;;16.08;56.02;95802.28;4996991;28;20087;-75
2024/04/01 08:36:08;;;;;;;15.32;4.68;;;;;;;16.03;57.42;95818.00;5015503;28;20037;-75
2024/04/01 08:38:33;;;;;;;11.52;3.70;;;;;;;16.02;57.65;95832.69;5014606;28;20116;-75
2024/04/01 08:41:05;;;;;;;11.70;3.10;;;;;;;16.00;56.43;95834.97;5014973;28;20094;-75
2024/04/01 08:43:39;;;;;;;10.63;3.22;;;;;;;16.08;54.61;95820.50;5015137;28;20029;-76
2024/04/01 08:46:05;;;;;;;18.02;3.47;;;;;;;15.88;54.79;95881.88;5006993;28;20040;-75
2024/04/01 08:48:31;;;;;;;14.60;3.80;;;;;;;15.40;57.35;95877.03;5014413;28;20385;-76
2024/04/01 08:51:01;;;;;;;8.60;3.08;;;;;;;15.38;58.62;95919.94;4997778;28;20132;-75
2024/04/01 08:53:58;;;;;;;17.38;4.60;;;;;;;15.08;59.38;95924.59;4998386;28;20507;-75
2024/04/01 08:56:25;;;;;;;13.85;4.45;;;;;;;15.21;59.17;95917.34;5027850;28;20492;-75
2024/04/01 08:58:51;;;;;;;24.02;4.90;;;;;;;14.85;60.74;95941.47;5012979;28;20026;-75
2024/04/01 09:01:16;;;;;;;16.38;5.07;;;;;;;14.75;62.26;95931.03;5006363;28;20041;-75
2024/04/01 09:03:42;;;;;;;16.58;5.70;;;;;;;14.88;61.12;95913.72;5006599;28;20513;-76
2024/04/01 09:06:07;;;;;;;16.25;5.40;;;;;;;14.75;62.34;95931.03;4998294;28;20041;-75
2024/04/01 09:08:33;;;;;;;25.70;5.45;;;;;;;14.67;63.54;95919.09;5009932;28;20041;-75
2024/04/01 09:10:58;;;;;;;18.95;5.50;;;;;;;14.65;64.96;95936.78;5001280;28;20128;-75
2024/04/01 09:13:23;;;;;;;21.65;5.90;;;;;;;14.44;65.28;95942.13;4998239;28;20029;-75
2024/04/01 09:15:49;;;;;;;24.05;6.05;;;;;;;14.54;65.47;95998.66;5006452;28;20042;-75
2024/04/01 09:18:15;;;;;;;16.98;5.28;;;;;;;14.11;66.09;96006.03;4994295;28;20025;-75
2024/04/01 09:20:42;;;;;;;17.08;5.95;;;;;;;14.29;66.66;96031.97;5011148;28;20120;-76
2024/04/01 09:23:08;;;;;;;23.17;5.90;;;;;;;14.28;67.08;96030.41;4985259;28;20021;-75
2024/04/01 09:25:34;;;;;;;15.35;6.13;;;;;;;14.19;68.62;96048.56;4997902;28;20034;-76
2024/04/01 09:28:00;;;;;;;18.13;6.03;;;;;;;14.28;70.35;96074.47;5013185;28;20120;-75
2024/04/01 09:30:25;;;;;;;22.70;6.65;;;;;;;14.01;71.13;96084.84;4985253;28;20046;-76
2024/04/01 09:32:51;;;;;;;18.65;6.30;;;;;;;14.01;72.18;96091.06;5014231;28;20049;-76
2024/04/01 09:35:16;;;;;;;22.90;6.72;;;;;;;13.69;73.83;96067.16;4997736;28;20037;-75
2024/04/01 09:37:42;;;;;;;17.60;6.20;;;;;;;13.71;74.53;96100.88;4997153;28;20095;-76
2024/04/01 09:40:08;;;;;;;18.55;6.40;;;;;;;13.64;76.23;96099.75;4981581;28;20132;-76
2024/04/01 09:42:33;;;;;;;21.77;7.10;;;;;;;13.57;76.78;96129.97;5034910;28;20021;-75
2024/04/01 09:44:59;;;;;;;17.25;6.10;;;;;;;13.54;78.17;96157.63;4981360;28;20435;-76
2024/04/01 09:47:25;;;;;;;14.73;6.35;;;;;;;13.46;78.17;96174.63;5010531;28;20028;-75
2024/04/01 09:49:51;;;;;;;18.67;7.38;;;;;;;13.51;78.90;96174.47;5013768;28;20374;-75
2024/04/01 09:52:17;;;;;;;17.67;6.28;;;;;;;13.41;79.15;96185.59;5006409;28;20029;-76
2024/04/01 09:54:45;;;;;;;15.98;6.10;;;;;;;13.28;80.19;96196.50;5006353;28;20059;-76
2024/04/01 09:57:25;;;;;;;17.63;7.05;;;;;;;13.50;80.24;96199.13;4997805;28;20075;-75
2024/04/01 10:00:14;;;;;;;12.90;6.18;;;;;;;13.54;81.51;96206.31;5014376;28;20126;-75
2024/04/01 10:02:52;;;;;;;18.40;6.70;;;;;;;13.64;81.70;96206.03;4997444;28;20396;-74
2024/04/01 10:05:41;;;;;;;19.08;7.45;;;;;;;13.75;81.37;96218.16;5002275;28;20115;-75
2024/04/01 10:08:35;;;;;;;19.02;6.57;;;;;;;13.87;81.08;96214.88;5034179;28;20099;-75
2024/04/01 10:11:37;;;;;;;14.52;6.07;;;;;;;13.88;81.92;96196.72;5031249;28;20528;-75
2024/04/01 10:14:39;;;;;;;11.95;6.40;;;;;;;13.94;82.21;96211.69;5016102;28;20099;-75
2024/04/01 10:17:17;;;;;;;23.05;9.68;;;;;;;13.83;83.19;96193.06;5025517;28;20037;-75
2024/04/01 10:20:00;;;;;;;17.85;8.77;;;;;;;14.01;81.66;96198.50;5006325;28;20038;-75
2024/04/01 10:22:57;;;;;;;16.77;8.52;;;;;;;13.93;82.10;96188.47;5017557;28;20045;-75
2024/04/01 10:25:42;;;;;;;20.25;10.18;;;;;;;13.82;81.96;96186.06;5029114;28;20073;-75
2024/04/01 10:28:37;;;;;;;12.63;5.73;;;;;;;13.78;82.46;96209.44;5005301;28;20034;-75
2024/04/01 10:31:41;;;;;;;7.38;4.10;;;;;;;13.57;82.67;96215.72;5017135;28;20116;-75
2024/04/01 10:34:21;;;;;;;9.63;3.85;;;;;;;13.41;82.34;96225.34;5031732;28;20117;-75
2024/04/01 10:37:15;;;;;;;8.55;3.00;;;;;;;13.51;82.86;96233.97;5034809;28;20572;-75
2024/04/01 10:40:00;;;;;;;7.03;2.33;;;;;;;13.22;82.79;96251.78;4997386;28;20045;-75
2024/04/01 10:42:43;;;;;;;3.70;2.10;;;;;;;13.33;81.76;96253.09;5012029;28;20121;-75
2024/04/01 10:45:36;;;;;;;2.80;1.65;;;;;;;13.04;81.88;96243.53;5012693;28;20033;-75
2024/04/01 10:48:18;;;;;;;3.88;1.80;;;;;;;13.05;82.30;96252.44;5033130;28;20041;-75
2024/04/01 10:51:10;;;;;;;1.95;1.52;;;;;;;13.01;82.09;96273.06;5000573;28;20052;-75
2024/04/01 10:53:56;;;;;;;2.90;1.88;;;;;;;12.98;82.51;96279.06;5016728;28;20041;-75
2024/04/01 10:56:39;;;;;;;2.10;1.40;;;;;;;12.94;82.62;96294.31;5027747;28;20127;-75
2024/04/01 10:59:43;;;;;;;2.45;1.50;;;;;;;13.07;82.74;96298.88;5008289;28;20041;-75
2024/04/01 11:02:22;;;;;;;1.20;1.10;;;;;;;13.09;81.63;96272.38;4993018;28;20044;-75
2024/04/01 11:05:09;;;;;;;1.50;1.20;;;;;;;13.12;81.58;96285.25;5016703;28;20040;-75
2024/04/01 11:08:00;;;;;;;0.98;0.90;;;;;;;13.11;80.76;96278.28;5016151;28;20133;-76
2024/04/01 11:10:33;;;;;;;1.27;0.90;;;;;;;13.20;79.58;96276.44;5009283;28;20481;-75
2024/04/01 11:13:14;;;;;;;0.80;0.80;;;;;;;13.26;79.83;96290.59;5004981;28;20038;-76
2024/04/01 11:15:40;;;;;;;1.67;0.90;;;;;;;13.08;79.19;96300.50;4998380;28;20043;-75
2024/04/01 11:18:14;;;;;;;1.67;0.77;;;;;;;13.03;78.46;96323.00;4996386;28;20026;-76
2024/04/01 11:20:44;;;;;;;0.70;0.70;;;;;;;12.79;78.77;96337.91;5030516;28;20065;-76
2024/04/01 11:23:34;;;;;;;0.77;0.77;;;;;;;12.54;79.72;96343.81;5012590;28;20022;-76
2024/04/01 11:26:32;;;;;;;0.75;0.75;;;;;;;12.39;80.74;96347.66;4997920;28;20073;-75
2024/04/01 11:29:23;;;;;;;0.80;0.80;;;;;;;12.49;80.47;96374.41;5015725;28;20083;-75
2024/04/01 11:31:59;;;;;;;1.67;0.90;;;;;;;12.47;79.71;96361.22;5016329;28;20481;-75